Time;durP1;ratioP1;P1;durP2;ratioP2;P2;SDS_P1;SDS_P2;PMS_P1;PMS_P2;Temp;Humidity;BMP_temperature;BMP_pressure;BME280_temperature;BME280_humidity;BME280_pressure;Samples;Min_cycle;Max_cycle;Signal;HPM_P1;HPM_P2
2022/03/01 00:00:28;;;;;;;19.63;17.58;;;2.70;99.90;;;;;;4882546;28;89445;-35
2022/03/01 00:02:53;;;;;;;19.10;16.38;;;2.80;99.90;;;;;;4882579;28;89607;-34
2022/03/01 00:05:19;;;;;;;21.50;15.77;;;2.80;99.90;;;;;;4935815;23;89613;-34
2022/03/01 00:07:45;;;;;;;27.77;17.83;;;2.80;99.90;;;;;;4921512;28;89611;-31
2022/03/01 00:10:10;;;;;;;23.63;15.93;;;2.90;99.90;;;;;;4919776;28;90795;-36
2022/03/01 00:12:36;;;;;;;23.02;18.08;;;2.90;99.90;;;;;;4921434;28;89522;-32
2022/03/01 00:15:03;;;;;;;21.92;17.30;;;3.00;99.90;;;;;;4921496;28;88289;-31
2022/03/01 00:17:29;;;;;;;18.67;15.63;;;3.00;99.90;;;;;;4920467;28;89588;-30
2022/03/01 00:19:54;;;;;;;18.00;15.65;;;3.00;99.90;;;;;;4921154;28;90061;-34
2022/03/01 00:22:20;;;;;;;21.00;17.88;;;3.00;99.90;;;;;;4920607;28;90368;-33
2022/03/01 00:24:45;;;;;;;26.27;17.70;;;2.90;99.90;;;;;;4921181;28;87644;-29
2022/03/01 00:27:11;;;;;;;21.90;16.88;;;2.90;99.90;;;;;;4920274;28;91611;-33
2022/03/01 00:29:37;;;;;;;22.73;18.40;;;2.80;99.90;;;;;;4920693;28;90739;-32
2022/03/01 00:32:02;;;;;;;23.13;17.30;;;2.80;99.90;;;;;;4920322;28;90875;-30
2022/03/01 00:34:28;;;;;;;23.58;18.25;;;2.80;99.90;;;;;;4919643;28;88203;-31
2022/03/01 00:36:54;;;;;;;20.63;16.95;;;2.70;99.90;;;;;;4920882;28;91984;-31
2022/03/01 00:39:19;;;;;;;24.40;16.80;;;2.70;99.90;;;;;;4919844;28;93628;-34
2022/03/01 00:41:45;;;;;;;23.67;18.17;;;2.60;99.90;;;;;;4920817;28;89642;-30
2022/03/01 00:44:10;;;;;;;23.08;18.17;;;2.60;99.90;;;;;;4920378;28;88012;-34
2022/03/01 00:46:36;;;;;;;22.45;17.88;;;2.60;99.90;;;;;;4920710;28;89780;-30
2022/03/01 00:49:02;;;;;;;22.17;18.02;;;2.60;99.90;;;;;;4903879;28;91936;-29
2022/03/01 00:51:28;;;;;;;24.80;17.23;;;2.60;99.90;;;;;;4919860;28;89698;-31
2022/03/01 00:53:54;;;;;;;25.60;18.10;;;2.60;99.90;;;;;;4903016;28;89776;-31
2022/03/01 00:56:20;;;;;;;24.10;18.95;;;2.50;99.90;;;;;;4919903;28;91101;-31
2022/03/01 00:58:45;;;;;;;22.05;17.27;;;2.50;99.90;;;;;;4920196;28;91080;-30
2022/03/01 01:01:11;;;;;;;21.55;17.10;;;2.50;99.90;;;;;;4920696;28;92171;-31
2022/03/01 01:03:36;;;;;;;24.85;18.95;;;2.50;99.90;;;;;;4902462;28;89317;-32
2022/03/01 01:06:02;;;;;;;21.35;18.02;;;2.50;99.90;;;;;;4919933;28;89891;-31
2022/03/01 01:08:28;;;;;;;27.33;20.75;;;2.40;99.90;;;;;;4920335;28;89198;-32
2022/03/01 01:10:54;;;;;;;22.55;17.27;;;2.40;99.90;;;;;;4920531;28;89620;-30
2022/03/01 01:13:19;;;;;;;23.10;17.58;;;2.40;99.90;;;;;;4919687;28;89338;-32
2022/03/01 01:15:45;;;;;;;24.85;18.50;;;2.40;99.90;;;;;;4920331;28;90732;-30
2022/03/01 01:18:11;;;;;;;20.30;17.52;;;2.40;99.90;;;;;;4920369;28;89362;-31
2022/03/01 01:20:37;;;;;;;25.92;19.23;;;2.40;99.90;;;;;;4920621;28;89637;-33
2022/03/01 01:23:04;;;;;;;23.73;18.20;;;2.30;99.90;;;;;;4920031;28;89359;-34
2022/03/01 01:25:30;;;;;;;25.05;19.00;;;2.30;99.90;;;;;;4919723;28;91004;-29
2022/03/01 01:27:58;;;;;;;22.67;17.73;;;2.30;99.90;;;;;;4919311;28;90150;-33
2022/03/01 01:30:25;;;;;;;;;;;2.30;99.90;;;;;;4920241;28;89767;-30
2022/03/01 01:32:51;;;;;;;23.27;17.70;;;2.30;99.90;;;;;;4922279;28;89903;-30
2022/03/01 01:35:19;;;;;;;24.40;19.08;;;2.30;99.90;;;;;;4919560;28;90175;-30
2022/03/01 01:37:45;;;;;;;25.30;18.60;;;2.30;99.90;;;;;;4919477;28;89722;-30
2022/03/01 01:40:13;;;;;;;23.25;17.92;;;2.30;99.90;;;;;;4919883;28;90078;-35
2022/03/01 01:42:39;;;;;;;26.45;18.95;;;2.30;99.90;;;;;;4920471;28;89446;-31
2022/03/01 01:45:05;;;;;;;23.80;20.08;;;2.30;99.90;;;;;;4902354;28;92323;-30
2022/03/01 01:47:31;;;;;;;21.08;17.70;;;2.30;99.90;;;;;;4918863;28;90580;-31
2022/03/01 01:49:56;;;;;;;29.10;19.67;;;2.30;99.90;;;;;;4920120;28;90565;-31
2022/03/01 01:52:25;;;;;;;27.02;20.10;;;2.30;99.90;;;;;;4919525;28;90226;-31
2022/03/01 01:54:50;;;;;;;26.70;20.00;;;2.30;99.90;;;;;;4920125;28;90306;-30
2022/03/01 01:57:19;;;;;;;26.08;20.45;;;2.20;99.90;;;;;;4919587;28;89818;-31
2022/03/01 01:59:46;;;;;;;26.10;20.02;;;2.30;99.90;;;;;;4901761;28;89615;-32
2022/03/01 02:02:13;;;;;;;21.27;18.70;;;2.30;99.90;;;;;;4918898;28;88889;-33
2022/03/01 02:04:40;;;;;;;27.88;19.77;;;2.20;99.90;;;;;;4919447;28;90337;-33
2022/03/01 02:07:06;;;;;;;25.83;20.65;;;2.20;99.90;;;;;;4919514;28;89686;-29
2022/03/01 02:09:32;;;;;;;27.88;20.42;;;2.20;99.90;;;;;;4919079;28;89521;-31
2022/03/01 02:11:57;;;;;;;24.67;20.73;;;2.30;99.90;;;;;;4918893;28;88741;-30
2022/03/01 02:14:23;;;;;;;22.90;19.17;;;2.30;99.90;;;;;;4918601;28;89857;-31
2022/03/01 02:16:49;;;;;;;27.08;20.45;;;2.20;99.90;;;;;;4920311;28;89945;-31
2022/03/01 02:19:14;;;;;;;26.45;21.58;;;2.20;99.90;;;;;;4923041;28;89413;-29
2022/03/01 02:21:51;;;;;;;26.60;20.63;;;2.10;99.90;;;;;;4922636;28;90006;-31
2022/03/01 02:24:18;;;;;;;26.40;21.13;;;2.10;99.90;;;;;;4922636;28;90729;-30
2022/03/01 02:26:44;;;;;;;28.25;22.45;;;2.10;99.90;;;;;;4922760;28;90294;-33
2022/03/01 02:29:10;;;;;;;30.88;20.85;;;2.10;99.90;;;;;;4922378;28;89136;-33
2022/03/01 02:31:36;;;;;;;25.40;21.65;;;2.00;99.90;;;;;;4923156;28;87734;-32
2022/03/01 02:34:01;;;;;;;27.27;21.95;;;2.00;99.90;;;;;;4922189;28;90145;-31
2022/03/01 02:36:27;;;;;;;25.73;20.30;;;2.00;99.90;;;;;;4921665;28;91084;-30
2022/03/01 02:38:53;;;;;;;25.38;19.42;;;2.00;99.90;;;;;;4922520;28;90030;-31
2022/03/01 02:41:19;;;;;;;28.90;21.80;;;2.00;99.90;;;;;;4922399;28;89287;-33
2022/03/01 02:43:44;;;;;;;25.45;21.83;;;2.00;99.90;;;;;;4922542;28;89968;-31
2022/03/01 02:46:10;;;;;;;29.50;22.67;;;2.00;99.90;;;;;;4922244;28;89994;-30
2022/03/01 02:48:35;;;;;;;27.30;22.45;;;1.90;99.90;;;;;;4922627;28;90763;-30
2022/03/01 02:51:01;;;;;;;28.20;21.65;;;1.90;99.90;;;;;;4922093;28;89340;-30
2022/03/01 02:53:27;;;;;;;25.35;20.90;;;1.90;99.90;;;;;;4922758;28;88401;-33
2022/03/01 02:55:52;;;;;;;24.15;20.95;;;1.90;99.90;;;;;;4922465;28;90340;-32
2022/03/01 02:58:18;;;;;;;28.70;21.73;;;1.80;99.90;;;;;;4921499;28;89814;-32
2022/03/01 03:00:48;;;;;;;24.75;21.30;;;1.80;99.90;;;;;;4921947;28;89997;-34
2022/03/01 03:03:14;;;;;;;26.92;20.02;;;1.80;99.90;;;;;;4922445;28;90146;-34
2022/03/01 03:05:40;;;;;;;27.35;22.35;;;1.80;99.90;;;;;;4922235;28;89440;-35
2022/03/01 03:08:07;;;;;;;27.58;22.45;;;1.80;99.90;;;;;;4922166;28;89873;-34
2022/03/01 03:10:33;;;;;;;33.70;22.70;;;1.70;99.90;;;;;;4904317;28;89743;-31
2022/03/01 03:13:03;;;;;;;28.48;23.17;;;1.70;99.90;;;;;;4921592;28;90398;-29
2022/03/01 03:15:29;;;;;;;32.50;23.63;;;1.70;99.90;;;;;;4921789;28;90226;-29
2022/03/01 03:17:55;;;;;;;24.35;21.17;;;1.60;99.90;;;;;;4922393;28;90209;-36
2022/03/01 03:20:22;;;;;;;25.85;19.50;;;1.60;99.90;;;;;;4921341;28;89403;-31
2022/03/01 03:22:48;;;;;;;28.75;22.95;;;1.60;99.90;;;;;;4921566;28;91109;-30
2022/03/01 03:25:14;;;;;;;30.35;23.13;;;1.60;99.90;;;;;;4921479;28;91141;-29
2022/03/01 03:27:40;;;;;;;26.17;20.50;;;1.50;99.90;;;;;;4921242;28;91067;-31
2022/03/01 03:30:06;;;;;;;28.02;23.17;;;1.50;99.90;;;;;;4921485;28;89578;-36
2022/03/01 03:32:32;;;;;;;26.73;21.08;;;1.50;99.90;;;;;;4921566;28;91314;-31
2022/03/01 03:34:58;;;;;;;30.85;23.10;;;1.50;99.90;;;;;;4920875;28;89690;-31
2022/03/01 03:37:23;;;;;;;27.90;22.92;;;1.40;99.90;;;;;;4921565;28;90002;-35
2022/03/01 03:39:49;;;;;;;26.33;20.80;;;1.40;99.90;;;;;;4921548;28;89609;-32
2022/03/01 03:42:14;;;;;;;27.08;20.60;;;1.40;99.90;;;;;;4920966;28;90866;-33
2022/03/01 03:44:40;;;;;;;32.80;22.10;;;1.40;99.90;;;;;;4903393;28;92135;-32
2022/03/01 03:47:07;;;;;;;27.65;21.77;;;1.40;99.90;;;;;;4920639;28;89351;-31
2022/03/01 03:49:32;;;;;;;29.23;21.65;;;1.40;99.90;;;;;;4920690;28;88795;-29
2022/03/01 03:51:59;;;;;;;29.67;22.98;;;1.40;99.90;;;;;;4921333;28;90000;-31
2022/03/01 03:54:25;;;;;;;27.25;22.98;;;1.40;99.90;;;;;;4921251;28;90212;-30
2022/03/01 03:56:51;;;;;;;30.95;22.77;;;1.30;99.90;;;;;;4921928;28;89467;-31
2022/03/01 03:59:16;;;;;;;27.85;22.48;;;1.30;99.90;;;;;;4920472;28;90032;-30
2022/03/01 04:01:42;;;;;;;31.95;23.60;;;1.30;99.90;;;;;;4921252;28;90369;-34
2022/03/01 04:04:08;;;;;;;25.63;21.08;;;1.30;99.90;;;;;;4920753;28;90148;-32
2022/03/01 04:06:35;;;;;;;26.25;22.73;;;1.30;99.90;;;;;;4920313;28;89931;-33
2022/03/01 04:09:00;;;;;;;27.48;21.35;;;1.40;99.90;;;;;;4921627;28;89568;-29
2022/03/01 04:11:26;;;;;;;31.90;22.85;;;1.40;99.90;;;;;;4919770;28;90128;-32
2022/03/01 04:13:52;;;;;;;29.50;22.45;;;1.40;99.90;;;;;;4920287;28;90953;-33
2022/03/01 04:16:18;;;;;;;29.02;22.25;;;1.40;99.90;;;;;;4920844;28;90436;-29
2022/03/01 04:18:44;;;;;;;26.35;22.40;;;1.40;99.90;;;;;;4920775;28;89249;-31
2022/03/01 04:21:10;;;;;;;26.15;20.63;;;1.50;99.90;;;;;;4921061;28;89809;-33
2022/03/01 04:23:37;;;;;;;33.65;23.92;;;1.50;99.90;;;;;;4920413;28;89736;-31
2022/03/01 04:26:04;;;;;;;29.75;23.45;;;1.50;99.90;;;;;;4920752;28;89836;-31
2022/03/01 04:28:30;;;;;;;28.20;21.73;;;1.50;99.90;;;;;;4921378;28;89213;-31
2022/03/01 04:30:56;;;;;;;30.13;22.38;;;1.50;99.90;;;;;;4920316;28;90398;-31
2022/03/01 04:33:22;;;;;;;26.95;22.35;;;1.40;99.90;;;;;;4920246;28;89705;-33
2022/03/01 04:35:48;;;;;;;34.22;24.13;;;1.40;99.90;;;;;;4921327;28;89608;-32
2022/03/01 04:38:14;;;;;;;25.55;21.00;;;1.40;99.90;;;;;;4919859;28;89846;-32
2022/03/01 04:40:40;;;;;;;27.27;21.45;;;1.40;99.90;;;;;;4920580;28;90335;-32
2022/03/01 04:43:05;;;;;;;32.90;22.75;;;1.40;99.90;;;;;;4920244;28;90674;-32
2022/03/01 04:45:31;;;;;;;27.67;21.08;;;1.40;99.90;;;;;;4920284;28;89124;-36
2022/03/01 04:47:58;;;;;;;25.35;21.23;;;1.40;99.90;;;;;;4920925;28;88292;-33
2022/03/01 04:50:24;;;;;;;26.65;20.20;;;1.40;99.90;;;;;;4919792;28;90394;-31
2022/03/01 04:52:49;;;;;;;35.75;25.02;;;1.30;99.90;;;;;;4920576;28;89777;-31
2022/03/01 04:55:15;;;;;;;26.83;22.42;;;1.30;99.90;;;;;;4920153;28;89317;-30
2022/03/01 04:57:42;;;;;;;30.80;22.48;;;1.30;99.90;;;;;;4920323;28;88493;-34
2022/03/01 05:00:10;;;;;;;29.58;20.77;;;1.20;99.90;;;;;;4920510;28;90087;-33
2022/03/01 05:02:37;;;;;;;;;;;1.20;99.90;;;;;;4920641;28;90767;-33
2022/03/01 05:05:03;;;;;;;29.40;20.58;;;1.20;99.90;;;;;;4921673;28;90039;-30
2022/03/01 05:07:28;;;;;;;29.60;22.42;;;1.20;99.90;;;;;;4920545;28;88832;-33
2022/03/01 05:09:54;;;;;;;26.00;20.30;;;1.20;99.90;;;;;;4920132;28;90242;-31
2022/03/01 05:12:20;;;;;;;28.67;21.85;;;1.10;99.90;;;;;;4919766;28;89792;-29
2022/03/01 05:14:45;;;;;;;28.58;22.17;;;1.10;99.90;;;;;;4920275;28;89968;-31
2022/03/01 05:17:11;;;;;;;27.85;22.63;;;1.10;99.90;;;;;;4920327;28;88739;-30
2022/03/01 05:19:37;;;;;;;31.30;20.83;;;1.10;99.90;;;;;;4919976;28;90275;-32
2022/03/01 05:22:03;;;;;;;25.08;21.77;;;1.10;99.90;;;;;;4920309;28;89802;-32
2022/03/01 05:24:29;;;;;;;27.55;20.60;;;1.10;99.90;;;;;;4919329;28;89976;-34
2022/03/01 05:26:55;;;;;;;30.13;22.42;;;1.20;99.90;;;;;;4920188;28;90139;-31
2022/03/01 05:29:21;;;;;;;29.02;22.02;;;1.30;99.90;;;;;;4919413;28;90416;-33
2022/03/01 05:31:47;;;;;;;31.63;22.52;;;1.30;99.90;;;;;;4920191;28;89549;-30
2022/03/01 05:34:13;;;;;;;23.50;20.33;;;1.40;99.90;;;;;;4920213;28;89907;-29
2022/03/01 05:36:38;;;;;;;27.33;21.75;;;1.40;99.90;;;;;;4919691;28;87722;-29
2022/03/01 05:39:04;;;;;;;28.95;22.75;;;1.50;99.90;;;;;;4920190;28;89999;-31
2022/03/01 05:41:30;;;;;;;31.05;23.30;;;1.50;99.90;;;;;;4919808;28;90392;-32
2022/03/01 05:43:55;;;;;;;26.33;23.38;;;1.50;99.90;;;;;;4919970;28;89395;-33
2022/03/01 05:46:21;;;;;;;28.45;22.83;;;1.60;99.90;;;;;;4919259;28;87829;-31
2022/03/01 05:48:47;;;;;;;29.05;22.13;;;1.60;99.90;;;;;;4919836;28;90141;-32
2022/03/01 05:51:12;;;;;;;33.50;23.25;;;1.60;99.90;;;;;;4919697;28;90498;-28
2022/03/01 05:53:38;;;;;;;35.55;24.70;;;1.70;99.90;;;;;;4921816;28;89393;-29
2022/03/01 05:56:04;;;;;;;29.98;22.95;;;1.70;99.90;;;;;;4923167;28;87715;-31
2022/03/01 05:58:29;;;;;;;33.28;26.08;;;1.60;99.90;;;;;;4922444;28;90462;-30
2022/03/01 06:00:55;;;;;;;34.83;24.33;;;1.70;99.90;;;;;;4923322;28;90344;-30
2022/03/01 06:03:21;;;;;;;29.02;23.70;;;1.60;99.90;;;;;;4923554;28;90007;-30
2022/03/01 06:05:46;;;;;;;33.47;24.33;;;1.60;99.90;;;;;;4922675;28;91175;-34
2022/03/01 06:08:12;;;;;;;31.80;24.58;;;1.60;99.90;;;;;;4922914;28;90432;-29
2022/03/01 06:10:37;;;;;;;29.45;22.30;;;1.60;99.90;;;;;;4922632;28;90417;-30
2022/03/01 06:13:03;;;;;;;34.30;24.33;;;1.60;99.90;;;;;;4923508;28;89829;-31
2022/03/01 06:15:28;;;;;;;29.55;21.35;;;1.60;99.90;;;;;;4922288;28;89814;-30
2022/03/01 06:17:54;;;;;;;32.53;23.00;;;1.60;99.90;;;;;;4923270;28;89357;-30
2022/03/01 06:20:20;;;;;;;33.00;22.88;;;1.60;99.90;;;;;;4922655;28;89761;-33
2022/03/01 06:22:46;;;;;;;25.92;22.92;;;1.60;99.90;;;;;;4922824;28;89336;-33
2022/03/01 06:25:12;;;;;;;31.58;24.48;;;1.60;99.90;;;;;;4922814;28;89749;-31
2022/03/01 06:27:38;;;;;;;34.05;24.50;;;1.60;99.90;;;;;;4922829;28;90514;-33
2022/03/01 06:30:06;;;;;;;32.67;23.73;;;1.60;99.90;;;;;;4922632;28;89711;-33
2022/03/01 06:32:32;;;;;;;28.50;22.83;;;1.60;99.90;;;;;;4922803;28;89857;-30
2022/03/01 06:34:57;;;;;;;28.30;23.42;;;1.70;99.90;;;;;;4922766;28;88900;-31
2022/03/01 06:37:23;;;;;;;35.33;22.40;;;1.70;99.90;;;;;;4922802;28;90617;-32
2022/03/01 06:39:50;;;;;;;36.55;23.88;;;1.70;99.90;;;;;;4922013;28;91018;-32
2022/03/01 06:42:17;;;;;;;35.47;21.45;;;1.70;99.90;;;;;;4922399;28;89125;-32
2022/03/01 06:44:42;;;;;;;35.13;25.35;;;1.70;99.90;;;;;;4905032;28;90224;-30
2022/03/01 06:47:08;;;;;;;27.30;24.15;;;1.70;99.90;;;;;;4922028;28;90265;-31
2022/03/01 06:49:34;;;;;;;30.35;24.35;;;1.70;99.90;;;;;;4922012;28;90157;-33
2022/03/01 06:52:01;;;;;;;27.88;22.73;;;1.70;99.90;;;;;;4922642;28;89686;-35
2022/03/01 06:54:26;;;;;;;28.20;25.13;;;1.70;99.90;;;;;;4922116;28;89374;-32
2022/03/01 06:56:52;;;;;;;28.20;23.55;;;1.70;99.90;;;;;;4922428;28;90823;-35
2022/03/01 06:59:18;;;;;;;34.50;26.38;;;1.70;99.90;;;;;;4888514;28;89142;-31
2022/03/01 07:01:43;;;;;;;32.97;25.10;;;1.70;99.90;;;;;;4922220;28;90089;-33
2022/03/01 07:04:09;;;;;;;30.23;22.65;;;1.70;99.90;;;;;;4921630;28;89917;-31
2022/03/01 07:06:34;;;;;;;32.00;22.58;;;1.80;99.90;;;;;;4921910;28;90551;-28
2022/03/01 07:09:00;;;;;;;29.83;22.95;;;1.80;99.90;;;;;;4904566;28;89745;-31
2022/03/01 07:11:26;;;;;;;35.40;23.92;;;1.90;99.90;;;;;;4921644;28;90257;-31
2022/03/01 07:13:51;;;;;;;31.17;23.88;;;1.90;99.90;;;;;;4922250;28;89404;-34
2022/03/01 07:16:17;;;;;;;27.20;23.13;;;1.90;99.90;;;;;;4921359;28;90247;-30
2022/03/01 07:18:43;;;;;;;33.20;24.23;;;2.00;99.90;;;;;;4921598;28;89236;-32
2022/03/01 07:21:10;;;;;;;31.05;22.77;;;2.00;99.90;;;;;;4922541;28;89626;-31
2022/03/01 07:23:35;;;;;;;30.77;23.80;;;2.10;99.90;;;;;;4921824;28;88070;-33
2022/03/01 07:26:04;;;;;;;26.00;22.33;;;2.10;99.90;;;;;;4921616;28;89922;-31
2022/03/01 07:28:30;;;;;;;26.48;23.67;;;2.10;99.90;;;;;;4920517;28;90334;-30
2022/03/01 07:30:57;;;;;;;33.25;24.02;;;2.10;99.90;;;;;;4921776;28;90792;-31
2022/03/01 07:33:23;;;;;;;41.60;26.05;;;2.20;99.90;;;;;;4921219;28;87906;-32
2022/03/01 07:35:49;;;;;;;35.47;26.27;;;2.20;99.90;;;;;;4922096;28;90979;-32
2022/03/01 07:38:14;;;;;;;30.98;25.38;;;2.30;99.90;;;;;;4921694;28;90011;-33
2022/03/01 07:40:40;;;;;;;37.80;25.08;;;2.40;99.90;;;;;;4921621;28;89368;-31
2022/03/01 07:43:07;;;;;;;35.28;24.90;;;2.60;99.90;;;;;;4922790;28;88652;-31
2022/03/01 07:45:36;;;;;;;32.00;23.67;;;2.70;99.90;;;;;;4921365;28;91094;-32
2022/03/01 07:48:02;;;;;;;28.98;24.77;;;2.80;99.90;;;;;;4921491;28;90321;-30
2022/03/01 07:50:30;;;;;;;37.20;23.33;;;2.90;99.90;;;;;;4920051;28;90306;-32
2022/03/01 07:52:55;;;;;;;30.58;23.05;;;3.00;99.90;;;;;;4921922;28;89357;-30
2022/03/01 07:55:22;;;;;;;28.58;22.63;;;3.10;99.90;;;;;;4921506;28;90162;-31
2022/03/01 07:57:47;;;;;;;27.45;21.65;;;3.20;99.90;;;;;;4921921;28;89763;-32
2022/03/01 08:00:14;;;;;;;29.83;23.08;;;3.20;99.90;;;;;;4921106;28;90331;-31
2022/03/01 08:02:40;;;;;;;32.72;23.80;;;3.40;99.90;;;;;;4921720;28;89325;-33
2022/03/01 08:05:07;;;;;;;33.72;24.85;;;3.50;99.90;;;;;;4921765;28;90119;-30
2022/03/01 08:07:33;;;;;;;32.72;23.30;;;3.60;99.90;;;;;;4921211;28;89328;-31
2022/03/01 08:09:59;;;;;;;34.00;22.42;;;3.60;99.90;;;;;;4921291;28;90174;-35
2022/03/01 08:12:25;;;;;;;32.20;24.75;;;3.70;99.90;;;;;;4921146;28;88866;-32
2022/03/01 08:14:50;;;;;;;30.27;22.65;;;3.80;99.90;;;;;;4920544;28;90401;-31
2022/03/01 08:17:17;;;;;;;28.67;23.77;;;3.90;99.90;;;;;;4920921;28;90424;-32
2022/03/01 08:19:42;;;;;;;22.00;17.52;;;4.00;99.90;;;;;;4920932;28;90936;-30
2022/03/01 08:22:09;;;;;;;31.25;23.70;;;4.10;99.90;;;;;;4918848;28;89312;-35
2022/03/01 08:24:35;;;;;;;30.08;20.85;;;4.20;99.90;;;;;;4899918;28;90293;-33
2022/03/01 08:27:00;;;;;;;26.10;20.63;;;4.30;99.90;;;;;;4899529;28;89732;-31
2022/03/01 08:29:28;;;;;;;27.98;20.42;;;4.50;99.90;;;;;;4899664;28;89492;-34
2022/03/01 08:31:54;;;;;;;30.92;22.27;;;4.60;99.90;;;;;;4901437;28;89259;-33
2022/03/01 08:34:19;;;;;;;27.67;19.92;;;4.70;99.90;;;;;;4901617;28;90351;-32
2022/03/01 08:36:45;;;;;;;30.30;20.05;;;4.70;99.90;;;;;;4901876;28;89040;-29
2022/03/01 08:39:10;;;;;;;28.38;22.25;;;4.80;99.90;;;;;;4900613;28;90616;-33
2022/03/01 08:41:36;;;;;;;25.80;21.45;;;4.80;99.90;;;;;;4900380;28;90905;-33
2022/03/01 08:44:03;;;;;;;23.77;19.65;;;4.80;99.90;;;;;;4902532;28;90121;-31
2022/03/01 08:46:29;;;;;;;26.00;21.08;;;4.90;99.90;;;;;;4901265;28;91289;-31
2022/03/01 08:48:55;;;;;;;28.48;20.40;;;4.90;99.90;;;;;;4901820;28;90042;-32
2022/03/01 08:51:22;;;;;;;30.35;21.02;;;4.90;99.90;;;;;;4901002;28;90380;-31
2022/03/01 08:53:48;;;;;;;28.30;20.73;;;5.00;99.90;;;;;;4901888;28;90370;-30
2022/03/01 08:56:15;;;;;;;24.90;20.60;;;5.00;99.90;;;;;;4901428;28;90120;-28
2022/03/01 08:58:42;;;;;;;31.40;23.05;;;5.10;99.90;;;;;;4902118;28;89589;-30
2022/03/01 09:01:08;;;;;;;25.85;21.08;;;5.10;99.90;;;;;;4901371;28;88487;-31
2022/03/01 09:03:33;;;;;;;25.80;19.50;;;5.10;99.90;;;;;;4901196;28;90803;-29
2022/03/01 09:05:59;;;;;;;25.88;19.95;;;5.20;99.90;;;;;;4900603;28;91939;-31
2022/03/01 09:08:25;;;;;;;28.15;22.38;;;5.30;99.90;;;;;;4901558;28;90419;-31
2022/03/01 09:10:51;;;;;;;27.58;21.48;;;5.30;99.90;;;;;;4901676;28;89149;-30
2022/03/01 09:13:16;;;;;;;31.42;21.88;;;5.50;99.90;;;;;;4900552;28;90249;-31
2022/03/01 09:15:42;;;;;;;26.10;20.45;;;5.60;99.90;;;;;;4901539;28;89695;-32
2022/03/01 09:18:08;;;;;;;23.45;20.95;;;5.80;99.90;;;;;;4900901;28;90155;-34
2022/03/01 09:20:34;;;;;;;26.08;22.20;;;5.90;99.90;;;;;;4901290;28;88810;-31
2022/03/01 09:23:01;;;;;;;33.00;21.63;;;6.10;99.20;;;;;;4901778;28;90957;-31
2022/03/01 09:25:27;;;;;;;22.98;20.42;;;6.20;99.90;;;;;;4900274;28;89661;-32
2022/03/01 09:27:53;;;;;;;24.75;20.83;;;6.40;92.70;;;;;;4901419;28;89650;-34
2022/03/01 09:30:20;;;;;;;31.20;20.15;;;6.50;94.10;;;;;;4883046;28;89643;-30
2022/03/01 09:32:46;;;;;;;25.15;21.13;;;6.60;94.80;;;;;;4900895;28;90787;-31
2022/03/01 09:35:12;;;;;;;24.75;20.15;;;6.70;95.60;;;;;;4901274;28;89658;-31
2022/03/01 09:37:39;;;;;;;22.52;18.88;;;6.80;93.20;;;;;;4901166;28;91265;-29
2022/03/01 09:40:06;;;;;;;25.88;21.77;;;6.70;90.30;;;;;;4883138;28;90096;-30
2022/03/01 09:42:32;;;;;;;25.15;21.33;;;6.70;92.90;;;;;;4909356;28;92119;-35
2022/03/01 09:44:59;;;;;;;26.38;20.73;;;6.80;92.00;;;;;;4935473;28;90213;-31
2022/03/01 09:47:25;;;;;;;29.60;21.75;;;6.80;94.20;;;;;;4937339;28;89576;-32
2022/03/01 09:49:51;;;;;;;24.35;21.42;;;6.90;92.40;;;;;;4936831;28;88480;-33
2022/03/01 09:52:18;;;;;;;30.02;22.08;;;6.90;94.70;;;;;;4936700;28;90814;-34
2022/03/01 09:54:44;;;;;;;25.05;21.25;;;7.00;91.30;;;;;;4936191;28;91699;-30
2022/03/01 09:57:14;;;;;;;25.85;20.98;;;7.00;90.80;;;;;;4936949;28;90358;-30
2022/03/01 09:59:39;;;;;;;22.88;20.48;;;7.00;90.10;;;;;;4937254;28;88262;-32
2022/03/01 10:02:05;;;;;;;27.35;19.42;;;7.10;89.90;;;;;;4937323;28;90260;-30
2022/03/01 10:04:31;;;;;;;31.50;22.65;;;7.20;89.80;;;;;;4936529;28;89602;-31
2022/03/01 10:06:56;;;;;;;25.45;20.33;;;7.40;86.80;;;;;;4937935;28;89324;-32
2022/03/01 10:09:24;;;;;;;24.42;21.00;;;7.40;90.00;;;;;;4936447;28;88045;-30
2022/03/01 10:11:51;;;;;;;25.75;21.67;;;7.60;89.20;;;;;;4937896;28;90586;-33
2022/03/01 10:14:31;;;;;;;22.42;19.75;;;7.60;89.10;;;;;;4936866;28;90168;-34
2022/03/01 10:16:57;;;;;;;28.27;21.98;;;7.70;87.30;;;;;;4937330;28;89623;-31
2022/03/01 10:19:23;;;;;;;29.35;21.58;;;7.70;90.00;;;;;;4935959;28;90518;-31
2022/03/01 10:21:56;;;;;;;25.90;20.30;;;7.80;90.10;;;;;;4937352;28;90528;-32
2022/03/01 10:24:22;;;;;;;34.25;21.92;;;7.80;87.80;;;;;;4936911;28;89467;-31
2022/03/01 10:26:49;;;;;;;28.00;20.75;;;7.80;89.40;;;;;;4919336;28;89475;-30
2022/03/01 10:29:16;;;;;;;23.95;19.85;;;7.70;88.40;;;;;;4937432;28;90238;-33
2022/03/01 10:31:46;;;;;;;23.73;21.25;;;7.70;88.50;;;;;;4936880;28;90287;-32
2022/03/01 10:34:13;;;;;;;24.33;21.30;;;7.70;90.00;;;;;;4936253;28;90201;-31
2022/03/01 10:36:46;;;;;;;27.65;22.33;;;7.80;88.40;;;;;;4937258;28;89796;-30
2022/03/01 10:39:13;;;;;;;29.15;23.67;;;7.90;87.60;;;;;;4925092;28;90017;-32
2022/03/01 10:41:41;;;;;;;26.15;19.73;;;8.00;88.30;;;;;;4920398;28;91302;-31
2022/03/01 10:44:23;;;;;;;26.35;20.42;;;8.10;89.00;;;;;;4919680;28;90772;-30
2022/03/01 10:46:51;;;;;;;26.08;19.42;;;8.20;85.50;;;;;;4919131;28;90811;-36
2022/03/01 10:49:21;;;;;;;22.65;19.83;;;8.30;84.20;;;;;;4920164;28;89175;-34
2022/03/01 10:52:05;;;;;;;27.90;21.30;;;8.40;84.90;;;;;;4919914;28;90342;-30
2022/03/01 10:54:40;;;;;;;27.95;22.00;;;8.50;87.50;;;;;;4919975;28;89879;-34
2022/03/01 10:57:08;;;;;;;27.25;21.02;;;8.70;87.10;;;;;;4920198;28;90315;-31
2022/03/01 10:59:35;;;;;;;26.25;21.38;;;8.80;85.90;;;;;;4919608;28;88520;-34
2022/03/01 11:02:02;;;;;;;24.17;21.58;;;8.90;82.10;;;;;;4920880;28;90255;-31
2022/03/01 11:04:28;;;;;;;26.67;21.40;;;9.10;80.40;;;;;;4920065;28;90247;-32
2022/03/01 11:07:02;;;;;;;24.95;18.23;;;9.10;82.10;;;;;;4920131;28;88312;-30
2022/03/01 11:09:30;;;;;;;25.80;20.77;;;9.20;82.20;;;;;;4919316;28;90398;-35
2022/03/01 11:11:58;;;;;;;26.90;20.60;;;9.30;78.90;;;;;;4920313;28;90077;-30
2022/03/01 11:14:26;;;;;;;;;;;9.50;77.40;;;;;;4920617;28;89822;-32
2022/03/01 11:17:10;;;;;;;23.13;19.95;;;9.60;79.70;;;;;;4921990;28;90931;-33
2022/03/01 11:19:56;;;;;;;26.63;20.33;;;9.70;78.60;;;;;;4920246;28;88139;-32
2022/03/01 11:22:31;;;;;;;25.77;19.85;;;9.70;78.20;;;;;;4920054;28;89979;-32
2022/03/01 11:24:57;;;;;;;25.15;21.20;;;9.70;76.40;;;;;;4920095;28;90478;-31
2022/03/01 11:27:26;;;;;;;24.00;19.08;;;9.70;77.00;;;;;;4920266;28;89491;-33
2022/03/01 11:30:03;;;;;;;24.42;17.50;;;9.90;77.50;;;;;;4920242;28;88749;-31
2022/03/01 11:32:38;;;;;;;22.48;16.45;;;10.10;75.30;;;;;;4919157;28;89610;-32
2022/03/01 11:35:04;;;;;;;26.85;18.45;;;10.20;74.00;;;;;;4919047;28;89252;-32
2022/03/01 11:37:30;;;;;;;22.00;19.08;;;10.40;73.40;;;;;;4902513;28;90888;-31
2022/03/01 11:39:58;;;;;;;25.85;20.23;;;10.50;72.60;;;;;;4918058;28;88416;-32
2022/03/01 11:42:24;;;;;;;23.80;18.85;;;10.60;70.20;;;;;;4918696;28;90266;-33
2022/03/01 11:44:54;;;;;;;22.08;17.75;;;10.50;70.20;;;;;;4919101;28;89918;-31
2022/03/01 11:47:30;;;;;;;29.65;20.33;;;10.50;69.80;;;;;;4920429;28;90011;-34
2022/03/01 11:49:56;;;;;;;22.77;18.50;;;10.30;69.50;;;;;;4919846;28;90732;-30
2022/03/01 11:52:25;;;;;;;22.63;17.50;;;10.30;69.30;;;;;;4918807;28;90159;-33
2022/03/01 11:54:52;;;;;;;;;;;10.10;70.40;;;;;;4919747;28;89703;-32
2022/03/01 11:57:24;;;;;;;23.55;19.20;;;10.00;71.80;;;;;;4921283;28;89104;-35
2022/03/01 11:59:50;;;;;;;24.58;18.77;;;10.00;72.20;;;;;;4919507;28;90041;-37
2022/03/01 12:02:17;;;;;;;23.30;19.17;;;9.90;72.60;;;;;;4918897;28;91566;-31
2022/03/01 12:04:49;;;;;;;24.05;18.23;;;9.80;72.40;;;;;;4966717;22;89415;-31
2022/03/01 12:07:20;;;;;;;21.33;17.55;;;9.80;72.70;;;;;;4919274;28;89623;-31
2022/03/01 12:10:19;;;;;;;24.50;18.02;;;9.70;73.10;;;;;;4919147;28;89608;-31
2022/03/01 12:12:46;;;;;;;23.52;19.13;;;9.70;72.70;;;;;;4900820;28;89569;-33
2022/03/01 12:15:12;;;;;;;24.30;18.48;;;9.70;73.30;;;;;;4919282;28;89581;-33
2022/03/01 12:17:41;;;;;;;21.25;17.38;;;9.70;74.00;;;;;;4919008;28;89534;-33
2022/03/01 12:20:10;;;;;;;23.23;18.98;;;9.70;73.10;;;;;;4918498;28;88814;-30
2022/03/01 12:22:35;;;;;;;19.85;17.83;;;9.70;73.30;;;;;;4919072;28;90984;-31
2022/03/01 12:25:01;;;;;;;27.48;18.40;;;9.70;73.70;;;;;;4918754;28;90576;-32
2022/03/01 12:27:30;;;;;;;26.60;19.85;;;9.80;74.10;;;;;;4918041;28;90641;-31
2022/03/01 12:30:01;;;;;;;23.30;19.40;;;9.80;74.60;;;;;;4919095;28;89270;-35
2022/03/01 12:32:26;;;;;;;21.50;18.30;;;9.80;74.10;;;;;;4918245;28;88722;-31
2022/03/01 12:34:52;;;;;;;21.95;18.20;;;9.80;73.00;;;;;;4918943;28;89444;-35